Time;durP1;ratioP1;P1;durP2;ratioP2;P2;SDS_P1;SDS_P2;PMS_P1;PMS_P2;Temp;Humidity;BMP_temperature;BMP_pressure;BME280_temperature;BME280_humidity;BME280_pressure;Samples;Min_cycle;Max_cycle;Signal;HPM_P1;HPM_P2
2023/01/13 00:02:24;;;;;;;;;;;;;;;5.27;74.74;100861.84;5379304;32;33485;-83
2023/01/13 00:05:27;;;;;;;;;;;;;;;5.33;74.60;100867.84;5396105;32;33023;-84
2023/01/13 00:08:29;;;;;;;;;;;;;;;5.86;73.37;100858.59;5393632;32;33431;-83
2023/01/13 00:11:31;;;;;;;;;;;;;;;5.50;74.74;100870.31;5407616;32;33717;-84
2023/01/13 00:14:33;;;;;;;;;;;;;;;5.62;74.72;100859.75;5393783;32;33660;-73
2023/01/13 00:17:35;;;;;;;;;;;;;;;5.31;74.07;100859.19;5382374;32;33782;-73
2023/01/13 00:20:37;;;;;;;;;;;;;;;5.36;75.76;100857.41;5411450;32;33960;-84
2023/01/13 00:23:39;;;;;;;;;;;;;;;5.93;72.71;100843.75;5392674;32;34088;-72
2023/01/13 00:26:41;;;;;;;;;;;;;;;5.60;73.01;100855.41;5417297;32;33822;-81
2023/01/13 00:29:43;;;;;;;;;;;;;;;6.01;72.29;100849.72;5396105;32;34148;-80
2023/01/13 00:32:45;;;;;;;;;;;;;;;5.79;72.70;100846.47;5409764;32;33722;-81
2023/01/13 00:35:56;;;;;;;;;;;;;;;5.56;73.20;100846.78;5398427;32;46314;-73
2023/01/13 00:38:58;;;;;;;;;;;;;;;5.11;75.87;100850.72;5386629;32;33030;-85
2023/01/13 00:45:21;;;;;;;;;;;;;;;5.55;73.35;100841.56;5396507;32;44608;-72
2023/01/13 00:48:23;;;;;;;;;;;;;;;5.47;72.68;100848.59;5409186;32;33673;-74
2023/01/13 00:51:25;;;;;;;;;;;;;;;4.81;75.28;100857.91;5382003;32;33482;-83
2023/01/13 00:54:27;;;;;;;;;;;;;;;5.62;73.41;100851.91;5398327;32;33483;-83
2023/01/13 00:57:29;;;;;;;;;;;;;;;5.98;70.72;100839.31;5395103;32;34456;-73
2023/01/13 01:00:31;;;;;;;;;;;;;;;5.58;71.72;100841.53;5392121;32;33799;-72
2023/01/13 01:03:33;;;;;;;;;;;;;;;5.89;70.69;100840.28;5410752;32;34513;-83
2023/01/13 01:06:38;;;;;;;;;;;;;;;5.04;72.55;100846.44;5395848;32;33817;-85
2023/01/13 01:09:40;;;;;;;;;;;;;;;5.56;72.77;100845.91;5415139;32;33657;-84
2023/01/13 01:12:41;;;;;;;;;;;;;;;5.56;71.45;100836.34;5394456;32;35128;-73
2023/01/13 01:15:43;;;;;;;;;;;;;;;5.44;72.41;100833.87;5355223;32;995350;-83
2023/01/13 01:18:46;;;;;;;;;;;;;;;5.72;70.58;100832.66;5401417;32;34306;-73
2023/01/13 01:21:48;;;;;;;;;;;;;;;5.43;72.82;100830.41;5400284;32;43671;-72
2023/01/13 01:24:50;;;;;;;;;;;;;;;5.29;72.38;100828.81;5408414;32;34394;-82
2023/01/13 01:27:52;;;;;;;;;;;;;;;5.75;71.15;100823.09;5402485;32;33668;-73
2023/01/13 01:30:54;;;;;;;;;;;;;;;5.74;71.03;100826.59;5423637;32;34123;-81
2023/01/13 01:33:56;;;;;;;;;;;;;;;5.71;71.77;100822.25;5396905;32;32958;-72
2023/01/13 01:36:58;;;;;;;;;;;;;;;5.69;70.12;100822.28;5405264;32;34189;-72
2023/01/13 01:40:00;;;;;;;;;;;;;;;5.03;72.16;100821.28;5415548;32;33006;-72
2023/01/13 01:46:22;;;;;;;;;;;;;;;5.52;71.20;100813.78;5418936;32;47199;-73
2023/01/13 01:49:31;;;;;;;;;;;;;;;5.30;71.31;100810.56;5400961;32;34057;-73
2023/01/13 01:52:34;;;;;;;;;;;;;;;5.43;70.38;100801.72;5379403;32;35282;-84
2023/01/13 01:55:36;;;;;;;;;;;;;;;5.41;70.70;100803.50;5403183;32;33976;-85
2023/01/13 01:58:41;;;;;;;;;;;;;;;5.73;69.01;100804.81;5386793;32;35524;-85
2023/01/13 02:01:42;;;;;;;;;;;;;;;5.75;68.78;100800.47;5419233;32;33509;-83
2023/01/13 02:04:49;;;;;;;;;;;;;;;5.80;67.95;100798.69;5398900;32;33068;-84
2023/01/13 02:07:52;;;;;;;;;;;;;;;5.47;69.30;100796.47;5399199;32;44890;-72
2023/01/13 02:10:54;;;;;;;;;;;;;;;5.75;69.06;100797.00;5384755;32;33564;-72
2023/01/13 02:13:56;;;;;;;;;;;;;;;5.18;70.60;100795.06;5400286;32;33033;-82
2023/01/13 02:17:16;;;;;;;;;;;;;;;5.76;69.41;100796.97;5407193;32;34597;-82
2023/01/13 02:20:18;;;;;;;;;;;;;;;5.38;70.37;100792.22;5403394;32;43704;-73
2023/01/13 02:26:53;;;;;;;;;;;;;;;5.62;68.94;100791.09;5401413;32;45402;-72
2023/01/13 02:33:36;;;;;;;;;;;;;;;5.72;68.63;100771.81;5413022;32;33759;-82
2023/01/13 02:36:49;;;;;;;;;;;;;;;6.12;67.02;100764.34;5406684;32;33607;-82
2023/01/13 02:39:54;;;;;;;;;;;;;;;5.95;67.48;100775.00;5413528;32;45302;-72
2023/01/13 02:46:43;;;;;;;;;;;;;;;5.56;69.04;100783.34;5396939;32;34938;-83
2023/01/13 02:50:08;;;;;;;;;;;;;;;5.83;67.47;100779.50;5398156;32;34260;-73
2023/01/13 02:53:14;;;;;;;;;;;;;;;5.61;67.88;100771.97;5377735;32;33546;-72
2023/01/13 02:56:16;;;;;;;;;;;;;;;5.42;69.27;100778.28;5407058;32;44814;-82
2023/01/13 02:59:18;;;;;;;;;;;;;;;5.21;70.68;100773.28;5412554;32;34314;-73
2023/01/13 03:02:20;;;;;;;;;;;;;;;5.02;72.18;100777.84;5403282;32;33497;-72
2023/01/13 03:05:22;;;;;;;;;;;;;;;5.37;70.50;100760.09;5418181;32;33478;-73
2023/01/13 03:08:27;;;;;;;;;;;;;;;5.58;69.92;100768.53;5396905;32;34382;-85
2023/01/13 03:11:31;;;;;;;;;;;;;;;5.33;70.95;100758.38;5407439;32;33687;-82
2023/01/13 03:14:48;;;;;;;;;;;;;;;4.05;74.99;100775.16;5400904;32;33271;-84
2023/01/13 03:18:08;;;;;;;;;;;;;;;5.16;72.10;100755.13;5391901;32;45272;-72
2023/01/13 03:21:21;;;;;;;;;;;;;;;5.59;70.04;100749.37;5416950;32;33670;-82
2023/01/13 03:24:29;;;;;;;;;;;;;;;4.55;75.24;100756.56;5401346;32;44801;-73
2023/01/13 03:27:32;;;;;;;;;;;;;;;5.70;70.78;100753.56;5397056;32;32946;-82
2023/01/13 03:30:42;;;;;;;;;;;;;;;5.40;69.89;100756.56;5386293;32;33693;-73
2023/01/13 03:33:52;;;;;;;;;;;;;;;5.64;70.97;100753.66;5388386;32;33956;-74
2023/01/13 03:36:54;;;;;;;;;;;;;;;5.19;70.66;100752.47;5407918;32;47028;-81
2023/01/13 03:40:28;;;;;;;;;;;;;;;5.65;70.30;100750.16;5399783;32;33718;-73
2023/01/13 03:46:55;;;;;;;;;;;;;;;5.41;71.32;100747.88;5400279;32;48014;-75
2023/01/13 03:50:13;;;;;;;;;;;;;;;5.69;69.28;100737.97;5398175;32;32965;-73
2023/01/13 03:53:19;;;;;;;;;;;;;;;5.28;70.26;100736.75;5402685;32;34032;-72
2023/01/13 03:56:23;;;;;;;;;;;;;;;5.02;72.13;100738.75;5403712;32;44298;-72
2023/01/13 03:59:26;;;;;;;;;;;;;;;5.13;72.90;100740.38;5396395;32;33176;-73
2023/01/13 04:02:35;;;;;;;;;;;;;;;5.21;72.97;100729.00;5408516;32;33807;-82
2023/01/13 04:05:38;;;;;;;;;;;;;;;5.63;69.51;100738.03;5379945;32;34155;-73
2023/01/13 04:08:42;;;;;;;;;;;;;;;5.88;69.81;100746.41;5400789;32;34263;-73
2023/01/13 04:11:52;;;;;;;;;;;;;;;5.51;70.91;100740.81;5380469;32;33401;-74
2023/01/13 04:14:54;;;;;;;;;;;;;;;5.20;72.06;100745.50;5405622;32;43496;-82
2023/01/13 04:18:10;;;;;;;;;;;;;;;4.82;74.49;100750.25;5398900;32;33654;-72
2023/01/13 04:21:12;;;;;;;;;;;;;;;5.01;73.08;100750.91;5398744;32;32893;-72
2023/01/13 04:24:14;;;;;;;;;;;;;;;4.75;74.49;100748.56;5406127;32;34102;-72
2023/01/13 04:27:16;;;;;;;;;;;;;;;4.94;74.13;100740.59;5399612;32;33985;-75
2023/01/13 04:30:18;;;;;;;;;;;;;;;5.60;71.43;100741.56;5407858;32;32703;-82
2023/01/13 04:33:20;;;;;;;;;;;;;;;5.82;70.54;100752.56;5406228;32;33468;-83
2023/01/13 04:36:26;;;;;;;;;;;;;;;6.01;69.32;100754.94;5412798;32;33842;-82
2023/01/13 04:39:28;;;;;;;;;;;;;;;6.32;67.71;100745.75;5395071;32;34423;-72
2023/01/13 04:42:30;;;;;;;;;;;;;;;5.78;69.60;100761.28;5400575;32;33708;-72
2023/01/13 04:45:32;;;;;;;;;;;;;;;5.36;71.01;100760.97;5399447;32;32569;-83
2023/01/13 04:48:34;;;;;;;;;;;;;;;5.38;70.04;100760.94;5394085;32;34388;-84
2023/01/13 04:51:36;;;;;;;;;;;;;;;5.47;71.96;100757.34;5376706;32;34644;-82
2023/01/13 04:54:38;;;;;;;;;;;;;;;5.17;72.35;100754.25;5393222;32;33939;-82
2023/01/13 04:57:40;;;;;;;;;;;;;;;4.99;72.56;100746.63;5414835;32;33751;-72
2023/01/13 05:00:42;;;;;;;;;;;;;;;5.48;72.54;100757.34;5401176;32;34211;-83
2023/01/13 05:03:44;;;;;;;;;;;;;;;5.10;72.90;100755.19;5386187;32;33065;-73
2023/01/13 05:06:46;;;;;;;;;;;;;;;5.29;72.51;100751.50;5408633;32;43705;-82
2023/01/13 05:09:48;;;;;;;;;;;;;;;5.92;70.33;100759.37;5377329;32;34950;-72
2023/01/13 05:19:39;;;;;;;;;;;;;;;5.75;70.97;100760.50;5351505;32;33701;-84
2023/01/13 05:26:02;;;;;;;;;;;;;;;5.28;72.27;100773.25;5382844;32;33423;-72
2023/01/13 05:29:04;;;;;;;;;;;;;;;5.16;73.28;100765.53;5414790;32;34494;-84
2023/01/13 05:32:07;;;;;;;;;;;;;;;5.90;69.59;100766.34;5406877;32;34444;-84
2023/01/13 05:35:09;;;;;;;;;;;;;;;5.38;70.86;100772.22;5382356;32;34247;-83
2023/01/13 05:38:11;;;;;;;;;;;;;;;6.06;69.24;100771.41;5406868;32;33739;-73
2023/01/13 05:44:33;;;;;;;;;;;;;;;5.74;68.94;100774.41;5414087;32;33842;-83
2023/01/13 05:47:35;;;;;;;;;;;;;;;4.98;73.23;100768.34;5404751;32;34460;-72
2023/01/13 05:50:37;;;;;;;;;;;;;;;5.53;71.05;100775.53;5395473;32;34322;-83
2023/01/13 05:53:39;;;;;;;;;;;;;;;5.13;71.98;100776.00;5391364;32;34488;-83
2023/01/13 05:56:41;;;;;;;;;;;;;;;5.77;70.36;100774.38;5381845;32;34211;-81
2023/01/13 05:59:43;;;;;;;;;;;;;;;5.62;68.99;100778.03;5409717;32;33961;-72
2023/01/13 06:02:45;;;;;;;;;;;;;;;5.71;70.75;100767.47;5397831;32;33322;-83
2023/01/13 06:05:49;;;;;;;;;;;;;;;5.47;71.00;100770.38;5408235;32;48282;-82
2023/01/13 06:08:51;;;;;;;;;;;;;;;5.74;70.95;100780.50;5397879;32;33774;-83
2023/01/13 06:11:52;;;;;;;;;;;;;;;5.34;72.36;100773.13;5412182;32;34366;-82
2023/01/13 06:14:54;;;;;;;;;;;;;;;5.38;73.00;100773.97;5382192;32;34324;-73
2023/01/13 06:17:56;;;;;;;;;;;;;;;5.51;71.51;100770.34;5389001;32;33124;-82
2023/01/13 06:20:58;;;;;;;;;;;;;;;5.52;70.45;100774.66;5408180;32;33895;-73
2023/01/13 06:24:00;;;;;;;;;;;;;;;5.20;70.94;100768.97;5398929;32;33326;-72
2023/01/13 06:27:03;;;;;;;;;;;;;;;5.30;71.94;100784.50;5402372;32;34022;-74
2023/01/13 06:30:07;;;;;;;;;;;;;;;4.97;72.45;100780.50;5397581;32;33938;-74
2023/01/13 06:33:11;;;;;;;;;;;;;;;5.26;73.84;100787.16;5396326;32;35213;-83
2023/01/13 06:36:15;;;;;;;;;;;;;;;4.86;73.72;100788.41;5381286;32;33913;-84
2023/01/13 06:39:18;;;;;;;;;;;;;;;5.93;70.29;100782.00;5396897;32;44896;-82
2023/01/13 06:45:42;;;;;;;;;;;;;;;6.02;69.31;100783.63;5400893;32;34747;-73
2023/01/13 06:48:44;;;;;;;;;;;;;;;5.44;71.80;100793.00;5399021;32;33432;-73
2023/01/13 06:51:46;;;;;;;;;;;;;;;6.23;67.97;100792.87;5370651;32;43668;-82
2023/01/13 06:54:48;;;;;;;;;;;;;;;6.36;67.03;100793.56;5390906;32;33763;-83
2023/01/13 06:57:51;;;;;;;;;;;;;;;6.16;67.73;100796.47;5415013;32;34544;-83
2023/01/13 07:00:53;;;;;;;;;;;;;;;5.86;68.82;100800.31;5404741;32;34403;-74
2023/01/13 07:03:57;;;;;;;;;;;;;;;6.33;67.44;100794.47;5419838;32;33250;-73
2023/01/13 07:06:58;;;;;;;;;;;;;;;6.47;66.37;100799.47;5409343;32;33099;-81
2023/01/13 07:10:01;;;;;;;;;;;;;;;5.87;68.91;100799.47;5403639;32;33459;-82
2023/01/13 07:16:26;;;;;;;;;;;;;;;5.19;72.04;100807.19;5406995;32;44430;-73
2023/01/13 07:19:28;;;;;;;;;;;;;;;5.59;71.49;100812.81;5419128;32;33037;-83
2023/01/13 07:22:30;;;;;;;;;;;;;;;5.88;69.59;100803.78;5408507;32;34448;-73
2023/01/13 07:25:32;;;;;;;;;;;;;;;5.59;69.69;100796.31;5404112;32;33538;-84
2023/01/13 07:28:34;;;;;;;;;;;;;;;4.75;74.38;100795.44;5406562;32;33907;-83
2023/01/13 07:31:37;;;;;;;;;;;;;;;4.79;74.92;100799.78;5420589;32;33252;-73
2023/01/13 07:34:40;;;;;;;;;;;;;;;4.76;74.79;100802.38;5413123;32;34104;-73
2023/01/13 07:37:42;;;;;;;;;;;;;;;5.77;71.18;100801.31;5416406;32;33668;-83
2023/01/13 07:40:44;;;;;;;;;;;;;;;6.27;68.91;100802.41;5425896;32;33383;-73
2023/01/13 07:43:46;;;;;;;;;;;;;;;5.11;73.60;100803.81;5399458;32;44266;-83
2023/01/13 07:46:48;;;;;;;;;;;;;;;6.00;70.34;100797.56;5424500;32;33548;-72
2023/01/13 07:49:50;;;;;;;;;;;;;;;6.39;67.65;100807.44;5407587;32;33185;-73
2023/01/13 07:52:52;;;;;;;;;;;;;;;6.44;67.99;100803.00;5388473;32;35263;-82
2023/01/13 07:55:55;;;;;;;;;;;;;;;6.74;66.64;100804.25;5404548;32;33580;-72
2023/01/13 07:58:58;;;;;;;;;;;;;;;6.91;65.69;100809.19;5410808;32;33084;-72
2023/01/13 08:02:00;;;;;;;;;;;;;;;6.26;67.92;100810.25;5425694;32;33726;-83
2023/01/13 08:05:02;;;;;;;;;;;;;;;6.69;66.33;100805.22;5406376;32;33630;-73
2023/01/13 08:08:04;;;;;;;;;;;;;;;6.54;66.62;100818.53;5416551;32;33699;-83
2023/01/13 08:11:07;;;;;;;;;;;;;;;6.45;66.33;100822.16;5393956;32;34360;-73
2023/01/13 08:14:09;;;;;;;;;;;;;;;5.49;69.49;100831.22;5389684;32;34348;-83
2023/01/13 08:17:11;;;;;;;;;;;;;;;6.53;66.77;100835.09;5416515;32;33792;-73
2023/01/13 08:20:13;;;;;;;;;;;;;;;6.11;67.87;100827.84;5409243;32;34403;-84
2023/01/13 08:23:16;;;;;;;;;;;;;;;6.33;66.85;100836.25;5419769;32;33711;-82
2023/01/13 08:26:18;;;;;;;;;;;;;;;6.05;69.45;100829.66;5399823;32;45441;-86
2023/01/13 08:29:20;;;;;;;;;;;;;;;5.80;67.82;100836.94;5422659;32;34330;-82
2023/01/13 08:32:22;;;;;;;;;;;;;;;5.86;68.77;100840.34;5414363;32;33324;-74
2023/01/13 08:35:24;;;;;;;;;;;;;;;6.17;67.42;100837.34;5415186;32;33851;-73
2023/01/13 08:38:26;;;;;;;;;;;;;;;5.83;67.53;100850.78;5414479;32;32583;-72
2023/01/13 08:44:51;;;;;;;;;;;;;;;5.78;69.36;100843.91;5423770;32;44825;-73
2023/01/13 08:47:53;;;;;;;;;;;;;;;5.54;68.46;100847.66;5404875;32;34295;-83
2023/01/13 08:51:05;;;;;;;;;;;;;;;5.03;70.98;100849.94;5411456;32;31471;-85
2023/01/13 08:54:07;;;;;;;;;;;;;;;4.92;73.58;100859.56;5408591;32;32748;-73
2023/01/13 08:57:09;;;;;;;;;;;;;;;5.58;70.08;100852.81;5412963;32;33515;-80
2023/01/13 09:00:12;;;;;;;;;;;;;;;5.82;68.54;100851.69;5422234;32;33547;-83
2023/01/13 09:03:13;;;;;;;;;;;;;;;4.48;73.65;100861.63;5412300;32;33938;-73
2023/01/13 09:06:15;;;;;;;;;;;;;;;5.58;70.50;100859.78;5423057;32;33794;-79
2023/01/13 09:09:17;;;;;;;;;;;;;;;5.67;69.92;100849.25;5407576;32;44744;-74
2023/01/13 09:15:40;;;;;;;;;;;;;;;5.69;68.94;100858.78;5424731;32;33439;-83
2023/01/13 09:18:43;;;;;;;;;;;;;;;6.17;66.93;100860.81;5384949;32;33219;-85
2023/01/13 09:21:45;;;;;;;;;;;;;;;5.05;70.87;100869.00;5422835;32;34615;-84
2023/01/13 09:24:47;;;;;;;;;;;;;;;5.98;67.34;100855.84;5413779;32;44455;-83
2023/01/13 09:27:49;;;;;;;;;;;;;;;5.47;69.96;100852.06;5417736;32;32809;-74
2023/01/13 09:30:51;;;;;;;;;;;;;;;5.57;69.23;100845.03;5415351;32;33737;-85
2023/01/13 09:37:13;;;;;;;;;;;;;;;6.33;66.15;100856.28;5427317;32;33987;-81
2023/01/13 09:40:16;;;;;;;;;;;;;;;4.94;70.47;100858.66;5397258;32;33951;-72
2023/01/13 09:46:42;;;;;;;;;;;;;;;5.25;71.96;100847.97;5417307;32;33007;-72
2023/01/13 09:49:45;;;;;;;;;;;;;;;5.14;70.63;100845.47;5415630;32;34232;-83
2023/01/13 09:52:46;;;;;;;;;;;;;;;4.47;73.51;100857.28;5406175;32;45220;-83
2023/01/13 09:55:48;;;;;;;;;;;;;;;4.39;74.73;100842.62;5411869;32;34656;-73
2023/01/13 09:58:51;;;;;;;;;;;;;;;4.42;75.65;100856.47;5425178;32;34083;-83
2023/01/13 10:01:57;;;;;;;;;;;;;;;4.72;74.52;100847.56;5400721;32;33624;-73
2023/01/13 10:05:13;;;;;;;;;;;;;;;4.48;74.64;100852.94;5420061;32;34328;-83
2023/01/13 10:08:15;;;;;;;;;;;;;;;5.21;73.81;100839.31;5411054;32;33757;-84
2023/01/13 10:14:40;;;;;;;;;;;;;;;5.22;73.06;100835.84;5407907;32;33811;-72
2023/01/13 10:17:54;;;;;;;;;;;;;;;5.85;70.25;100835.12;5415399;32;33609;-73
2023/01/13 10:21:07;;;;;;;;;;;;;;;5.78;71.12;100838.69;5413564;32;33688;-81
2023/01/13 10:24:21;;;;;;;;;;;;;;;5.02;73.30;100840.34;5402804;32;33597;-83
2023/01/13 10:27:35;;;;;;;;;;;;;;;6.33;68.19;100832.78;5418707;32;45415;-73
2023/01/13 10:30:39;;;;;;;;;;;;;;;6.10;68.59;100831.34;5424234;32;32832;-83
2023/01/13 10:33:41;;;;;;;;;;;;;;;6.63;67.15;100842.72;5417626;32;34696;-74
2023/01/13 10:36:58;;;;;;;;;;;;;;;6.40;68.12;100839.63;5411005;32;34196;-73
2023/01/13 10:40:00;;;;;;;;;;;;;;;6.65;66.70;100840.13;5414301;32;34238;-73
2023/01/13 10:43:05;;;;;;;;;;;;;;;6.53;67.22;100822.03;5395645;32;34276;-72
2023/01/13 10:46:11;;;;;;;;;;;;;;;6.46;66.56;100814.28;5423072;32;33564;-74
2023/01/13 10:49:43;;;;;;;;;;;;;;;5.90;68.73;100815.06;5415638;32;34248;-83
2023/01/13 10:52:58;;;;;;;;;;;;;;;5.47;71.95;100812.97;5395759;32;33468;-74
2023/01/13 10:56:01;;;;;;;;;;;;;;;4.97;73.66;100808.31;5403418;32;33895;-85
2023/01/13 10:59:22;;;;;;;;;;;;;;;5.73;71.11;100812.66;5409690;32;33401;-73
2023/01/13 11:02:29;;;;;;;;;;;;;;;5.95;69.59;100802.84;5413282;32;44684;-73
2023/01/13 11:05:31;;;;;;;;;;;;;;;6.27;67.96;100791.09;5397178;32;34621;-84
2023/01/13 11:08:41;;;;;;;;;;;;;;;6.27;67.86;100785.87;5419795;32;34455;-72
2023/01/13 11:11:44;;;;;;;;;;;;;;;5.40;70.71;100786.09;5400251;32;34101;-84
2023/01/13 11:14:46;;;;;;;;;;;;;;;5.32;71.93;100772.31;5412915;32;34017;-78
2023/01/13 11:17:50;;;;;;;;;;;;;;;5.88;69.45;100770.72;5416758;32;33310;-84
2023/01/13 11:20:52;;;;;;;;;;;;;;;6.50;66.69;100762.84;5412325;32;33758;-83
2023/01/13 11:24:13;;;;;;;;;;;;;;;5.24;70.42;100778.50;5410835;32;34206;-72
2023/01/13 11:27:20;;;;;;;;;;;;;;;5.91;68.09;100768.09;5411382;32;33595;-80
2023/01/13 11:30:28;;;;;;;;;;;;;;;5.72;70.73;100753.56;5409732;32;44797;-82
2023/01/13 11:33:35;;;;;;;;;;;;;;;5.97;68.61;100752.34;5409923;32;33827;-83
2023/01/13 11:36:38;;;;;;;;;;;;;;;5.40;71.25;100760.03;5411081;32;33651;-82
2023/01/13 11:40:02;;;;;;;;;;;;;;;5.48;72.44;100761.72;5415635;32;33315;-83
2023/01/13 11:43:10;;;;;;;;;;;;;;;4.93;74.60;100762.31;5418096;32;33727;-73
2023/01/13 11:46:12;;;;;;;;;;;;;;;5.96;70.49;100755.84;5402685;32;33726;-83
2023/01/13 11:49:25;;;;;;;;;;;;;;;5.72;72.00;100754.41;5420473;32;33944;-72
2023/01/13 11:52:31;;;;;;;;;;;;;;;5.77;70.26;100753.50;5393302;32;33347;-72
2023/01/13 11:55:55;;;;;;;;;;;;;;;5.16;71.91;100750.78;5407684;32;31460;-84
2023/01/13 11:59:15;;;;;;;;;;;;;;;5.71;71.34;100739.66;5413144;32;34306;-82
2023/01/13 12:02:17;;;;;;;;;;;;;;;5.64;71.20;100722.38;5407384;32;44420;-74
2023/01/13 12:05:25;;;;;;;;;;;;;;;5.53;73.10;100718.16;5417238;32;33779;-83
2023/01/13 12:08:46;;;;;;;;;;;;;;;5.70;69.77;100704.03;5405504;32;32075;-84
2023/01/13 12:15:18;;;;;;;;;;;;;;;6.22;70.63;100695.44;5409855;32;33815;-73
2023/01/13 12:18:39;;;;;;;;;;;;;;;5.51;72.65;100689.53;5409347;32;45471;-83
2023/01/13 12:21:50;;;;;;;;;;;;;;;5.63;72.78;100684.13;5409551;32;34516;-79
2023/01/13 12:25:05;;;;;;;;;;;;;;;6.46;68.65;100670.66;5403135;32;47536;-73
2023/01/13 12:28:34;;;;;;;;;;;;;;;5.26;72.18;100677.69;5425826;32;31411;-73
2023/01/13 12:31:37;;;;;;;;;;;;;;;5.90;71.50;100680.25;5418401;32;32997;-83
2023/01/13 12:34:46;;;;;;;;;;;;;;;6.64;67.75;100669.47;5404881;32;33713;-82
2023/01/13 12:37:51;;;;;;;;;;;;;;;5.95;69.82;100675.88;5419617;32;45825;-81
2023/01/13 12:41:13;;;;;;;;;;;;;;;6.29;69.79;100685.75;5408565;32;34424;-80
2023/01/13 12:44:19;;;;;;;;;;;;;;;6.72;67.29;100700.69;5422836;32;35557;-73
2023/01/13 12:47:42;;;;;;;;;;;;;;;6.10;69.27;100679.97;5406748;32;44611;-74
2023/01/13 12:50:44;;;;;;;;;;;;;;;6.08;70.73;100686.12;5384097;32;35781;-74
2023/01/13 12:53:46;;;;;;;;;;;;;;;5.64;72.05;100690.22;5412098;32;34821;-73
2023/01/13 12:56:48;;;;;;;;;;;;;;;5.57;73.71;100686.81;5392218;32;33938;-83
2023/01/13 13:00:13;;;;;;;;;;;;;;;5.73;72.90;100684.84;5416278;32;34029;-83
2023/01/13 13:03:22;;;;;;;;;;;;;;;6.35;71.75;100680.44;5409731;32;34533;-82
2023/01/13 13:06:24;;;;;;;;;;;;;;;6.86;68.95;100677.75;5386489;32;44491;-83
2023/01/13 13:09:26;;;;;;;;;;;;;;;6.73;68.06;100664.06;5414090;32;34086;-73
2023/01/13 13:15:52;;;;;;;;;;;;;;;7.20;67.35;100687.53;5416748;32;44909;-73
2023/01/13 13:19:14;;;;;;;;;;;;;;;6.53;68.46;100686.22;5413096;32;33448;-72
2023/01/13 13:22:25;;;;;;;;;;;;;;;7.12;66.54;100690.31;5397195;32;44343;-83
2023/01/13 13:25:27;;;;;;;;;;;;;;;7.00;67.28;100701.00;5424294;32;33011;-82
2023/01/13 13:28:32;;;;;;;;;;;;;;;7.38;66.24;100696.78;5388604;32;32982;-72
2023/01/13 13:31:39;;;;;;;;;;;;;;;7.37;66.76;100680.22;5412428;32;31865;-83
2023/01/13 13:34:47;;;;;;;;;;;;;;;7.54;66.11;100688.56;5411649;32;34669;-74
2023/01/13 13:48:38;;;;;;;;;;;;;;;7.28;66.89;100681.28;5415662;32;33747;-83
2023/01/13 13:51:43;;;;;;;;;;;;;;;7.86;66.15;100689.62;5360166;32;34045;-73
2023/01/13 13:54:48;;;;;;;;;;;;;;;7.60;65.60;100690.19;5395000;32;33585;-81
2023/01/13 13:57:50;;;;;;;;;;;;;;;7.46;67.57;100694.84;5415819;32;46312;-84
2023/01/13 14:00:53;;;;;;;;;;;;;;;7.74;66.83;100706.44;5395741;32;33884;-82
2023/01/13 14:04:21;;;;;;;;;;;;;;;7.56;66.74;100706.84;5402899;32;34463;-81
2023/01/13 14:07:23;;;;;;;;;;;;;;;6.96;69.60;100712.44;5413443;32;44302;-83
2023/01/13 14:10:32;;;;;;;;;;;;;;;6.95;70.43;100715.91;5396759;32;33856;-74
2023/01/13 14:13:34;;;;;;;;;;;;;;;7.01;70.35;100714.03;5392670;32;33503;-74
2023/01/13 14:16:36;;;;;;;;;;;;;;;7.02;70.71;100710.56;5399100;32;35688;-83
2023/01/13 14:19:44;;;;;;;;;;;;;;;7.49;68.87;100713.09;5421434;32;34392;-82
2023/01/13 14:22:47;;;;;;;;;;;;;;;7.46;69.09;100710.53;5393388;32;43717;-75
2023/01/13 14:25:51;;;;;;;;;;;;;;;7.66;68.95;100716.19;5402953;32;33807;-81
2023/01/13 14:28:54;;;;;;;;;;;;;;;7.89;67.72;100720.94;5409574;32;33768;-84
2023/01/13 14:31:56;;;;;;;;;;;;;;;7.02;71.98;100713.19;5393034;32;34088;-73
2023/01/13 14:34:58;;;;;;;;;;;;;;;7.74;68.97;100708.19;5400394;32;34162;-85
2023/01/13 14:38:00;;;;;;;;;;;;;;;7.78;68.36;100702.00;5407823;32;34459;-84
2023/01/13 14:41:16;;;;;;;;;;;;;;;8.27;67.04;100704.31;5403282;32;33607;-84
2023/01/13 14:44:18;;;;;;;;;;;;;;;8.35;66.24;100704.13;5421095;32;47453;-83
2023/01/13 14:47:27;;;;;;;;;;;;;;;7.23;71.07;100711.03;5406966;32;33355;-82
2023/01/13 14:50:31;;;;;;;;;;;;;;;7.53;69.82;100702.53;5400148;32;34480;-81
2023/01/13 14:53:33;;;;;;;;;;;;;;;7.96;68.06;100712.03;5400736;32;33489;-83
2023/01/13 14:56:43;;;;;;;;;;;;;;;7.34;70.30;100716.88;5400795;32;33941;-72
2023/01/13 14:59:45;;;;;;;;;;;;;;;6.86;73.80;100719.56;5402625;32;34013;-74
2023/01/13 15:02:48;;;;;;;;;;;;;;;7.28;71.70;100723.12;5383713;32;44579;-84
2023/01/13 15:05:50;;;;;;;;;;;;;;;7.74;70.65;100716.06;5415174;32;34729;-74
2023/01/13 15:08:53;;;;;;;;;;;;;;;8.20;67.63;100715.00;5386305;32;33242;-74
2023/01/13 15:11:57;;;;;;;;;;;;;;;8.08;67.95;100701.28;5408807;32;33473;-83
2023/01/13 15:14:59;;;;;;;;;;;;;;;8.14;67.54;100706.38;5394480;32;34238;-85
2023/01/13 15:18:08;;;;;;;;;;;;;;;7.15;70.19;100708.56;5419929;32;34665;-83
2023/01/13 15:21:10;;;;;;;;;;;;;;;7.90;69.04;100706.94;5404193;32;33553;-83
2023/01/13 15:24:12;;;;;;;;;;;;;;;8.13;67.83;100699.41;5409599;32;34252;-83
2023/01/13 15:27:17;;;;;;;;;;;;;;;7.85;68.84;100707.03;5418432;32;34276;-74
2023/01/13 15:30:21;;;;;;;;;;;;;;;7.86;69.14;100705.31;5408347;32;45474;-83
2023/01/13 15:33:23;;;;;;;;;;;;;;;7.94;68.95;100703.38;5418552;32;34177;-82
2023/01/13 15:36:26;;;;;;;;;;;;;;;7.76;69.25;100701.16;5412920;32;33675;-82
2023/01/13 15:39:28;;;;;;;;;;;;;;;7.86;69.76;100710.53;5389654;32;33240;-83
2023/01/13 15:49:26;;;;;;;;;;;;;;;7.61;70.32;100710.22;5426966;32;33975;-81
2023/01/13 15:52:28;;;;;;;;;;;;;;;7.78;69.88;100712.44;5359770;32;34623;-74
2023/01/13 15:55:34;;;;;;;;;;;;;;;7.63;70.46;100710.19;5402976;32;34394;-82
2023/01/13 15:58:36;;;;;;;;;;;;;;;7.72;70.53;100734.38;5418575;32;34116;-73
2023/01/13 16:01:38;;;;;;;;;;;;;;;7.75;69.81;100728.25;5410916;32;33617;-82
2023/01/13 16:04:40;;;;;;;;;;;;;;;7.73;70.58;100732.63;5418286;32;34148;-81
2023/01/13 16:07:42;;;;;;;;;;;;;;;7.72;71.66;100728.28;5388384;32;33004;-82
2023/01/13 16:10:44;;;;;;;;;;;;;;;7.82;70.13;100721.97;5412434;32;33824;-75
2023/01/13 16:13:46;;;;;;;;;;;;;;;7.16;72.76;100731.19;5405626;32;36280;-75
2023/01/13 16:16:48;;;;;;;;;;;;;;;7.85;69.72;100714.87;5385143;32;46530;-82
2023/01/13 16:19:50;;;;;;;;;;;;;;;7.88;69.20;100729.69;5410207;32;34297;-82
2023/01/13 16:22:52;;;;;;;;;;;;;;;7.60;70.43;100722.44;5401211;32;33758;-73
2023/01/13 16:25:54;;;;;;;;;;;;;;;7.72;70.00;100716.06;5409199;32;33918;-74
2023/01/13 16:28:56;;;;;;;;;;;;;;;7.51;70.87;100720.00;5395547;32;34302;-74
2023/01/13 16:31:59;;;;;;;;;;;;;;;7.37;71.94;100721.19;5406004;32;34233;-75
2023/01/13 16:35:01;;;;;;;;;;;;;;;7.32;71.49;100713.44;5397105;32;34580;-73
2023/01/13 16:38:03;;;;;;;;;;;;;;;7.86;70.59;100721.87;5381685;32;34659;-81
2023/01/13 16:41:05;;;;;;;;;;;;;;;7.29;71.60;100721.37;5410310;32;33772;-82
2023/01/13 16:44:07;;;;;;;;;;;;;;;7.25;73.71;100727.53;5390981;32;34191;-84
2023/01/13 16:47:11;;;;;;;;;;;;;;;8.14;69.49;100724.69;5428063;32;33992;-73
2023/01/13 16:50:19;;;;;;;;;;;;;;;8.27;68.04;100716.56;5387293;32;34018;-82
2023/01/13 16:53:24;;;;;;;;;;;;;;;8.18;67.80;100711.53;5401336;32;44680;-74
2023/01/13 16:56:27;;;;;;;;;;;;;;;8.15;68.48;100702.00;5402328;32;33171;-82
2023/01/13 16:59:29;;;;;;;;;;;;;;;8.12;69.24;100705.56;5392630;32;33998;-73
2023/01/13 17:02:31;;;;;;;;;;;;;;;7.68;70.40;100708.34;5395736;32;33669;-82
2023/01/13 17:05:38;;;;;;;;;;;;;;;8.05;69.36;100703.09;5386313;32;33182;-82
2023/01/13 17:08:40;;;;;;;;;;;;;;;7.64;70.23;100710.16;5417783;32;34744;-82
2023/01/13 17:11:41;;;;;;;;;;;;;;;7.56;71.34;100704.22;5393282;32;33800;-74
2023/01/13 17:14:43;;;;;;;;;;;;;;;8.00;69.95;100715.47;5388919;32;34130;-73
2023/01/13 17:17:50;;;;;;;;;;;;;;;8.12;67.88;100705.56;5407537;32;32003;-73
2023/01/13 17:20:52;;;;;;;;;;;;;;;8.19;68.13;100713.28;5384677;32;44825;-73
2023/01/13 17:23:54;;;;;;;;;;;;;;;8.19;68.15;100706.28;5420422;32;34616;-82
2023/01/13 17:26:57;;;;;;;;;;;;;;;8.05;69.09;100719.69;5394941;32;33165;-75